Airfield :
LOGIN :

Register | Disclaimer

   EN    FR    IT 

 










Legend :    VFR   Marginal VFR   IFR   Intensive IFR   Very Intensive IFR
Visi :
Ceiling :
>= 8 km
>= 3000ft
5 to 8 km
1000 to 3000 ft
1500m to 5 km
500 to 1000 ft
800 to 1500m
200 to 500 ft
< 800m
< 200 ft
Symbols :   Thunderstorms  Fog  Heavy snow  Heavy precipitations  Wind > 20 kt
SIGMETs :     Misc.  Thunderstorms  Icing  Turbulence  Mountain Waves  Volcanic Ashes







- Airport Elevation : 286 ft
- IATA code : FFD


EGVA - RAF Fairford

CURRENT METAR :
  • 231558Z AUTO 23007KT 9999 FEW085 16/14 A2988 RMK AO2 RAE22DZB22E24 SLP122 P0002 T01630139 $

EXPIRED METARs :
  • 231524Z AUTO 23005KT 9999 FEW049 15/13 A2988 RMK AO2 RAE22DZB22E24 SLP122 $
  • 231518Z AUTO 23005KT 9999 -RA SCT044 15/13 A2988 RMK AO2 SLP122
  • 231458Z AUTO 28008KT 6000 RA OVC036 15/13 A2989 RMK AO2 RAB24 SLP125 P0002 60002 T01520126 55001 $
  • 231444Z AUTO 29011KT 9000 -RA BKN026 BKN060 16/13 A2989 RMK AO2 RAB24 CIG 026V060 SLP125 $
  • 231424Z AUTO 24008KT 9999 -RA FEW025 SCT065 18/13 A2988 RMK AO2 RAB24 SLP121 $
  • 231358Z AUTO 22008KT 9999 CLR 19/14 A2988 RMK AO2 SLP121 T01870136 $

Expired Forecast.
No reported NOTAMs for that airfield.



MET'MAP, your aeronautical weather chart ! - Copyright ORBIFLY December 2007 - Disclaimer

ORBIFLY MET'MAP TEAM :

Programming & Development : Alexandra Zaïnal
Concept & Development : Baudouin d'Aumeries
Co-Development & Prog : Marc-Olivier Méhu
Technical & hardware support : Manuel Goepfert

Contact : metmap@orbifly.com




SOURCES & CREDITS :

   NOAA